Time;durP1;ratioP1;P1;durP2;ratioP2;P2;SDS_P1;SDS_P2;PMS_P1;PMS_P2;Temp;Humidity;BMP_temperature;BMP_pressure;BME280_temperature;BME280_humidity;BME280_pressure;Samples;Min_cycle;Max_cycle;Signal;HPM_P1;HPM_P2
2022/12/21 05:01:38;;;;;;;1999.90;999.90;;;8.50;99.90;;;;;;5426773;22;20753;-79
2022/12/21 05:04:05;;;;;;;1999.90;999.90;;;8.50;99.90;;;;;;4977780;28;20075;-78
2022/12/21 05:06:31;;;;;;;1999.90;999.90;;;8.50;99.90;;;;;;4978623;28;20024;-80
2022/12/21 05:08:57;;;;;;;1999.90;999.90;;;8.50;99.90;;;;;;4978373;28;20035;-79
2022/12/21 05:11:23;;;;;;;1999.90;999.90;;;8.50;99.90;;;;;;4976328;28;20087;-79
2022/12/21 05:13:50;;;;;;;1999.90;999.90;;;8.50;99.90;;;;;;4977689;28;20047;-79
2022/12/21 05:16:19;;;;;;;1999.90;999.90;;;8.50;99.90;;;;;;4978579;28;20089;-79
2022/12/21 05:18:46;;;;;;;1999.90;999.90;;;8.50;99.90;;;;;;4978960;28;20031;-77
2022/12/21 05:21:12;;;;;;;1999.90;999.90;;;8.50;99.90;;;;;;4973106;28;20401;-78
2022/12/21 05:23:38;;;;;;;1999.90;999.90;;;8.50;99.90;;;;;;4958191;28;20082;-78
2022/12/21 05:26:05;;;;;;;1999.90;999.90;;;8.50;99.90;;;;;;4957619;28;20028;-78
2022/12/21 05:28:31;;;;;;;1999.90;999.90;;;8.50;99.90;;;;;;4960749;28;20032;-78
2022/12/21 05:30:56;;;;;;;1999.90;999.90;;;8.50;99.90;;;;;;4959634;28;20476;-78
2022/12/21 05:33:23;;;;;;;1999.90;999.90;;;8.50;99.90;;;;;;4960623;28;20565;-78
2022/12/21 05:35:49;;;;;;;1999.90;999.90;;;8.50;99.90;;;;;;4958749;28;20031;-78
2022/12/21 05:38:15;;;;;;;1999.90;999.90;;;8.50;99.90;;;;;;4961020;28;20114;-78
2022/12/21 05:40:48;;;;;;;1999.90;999.90;;;8.60;99.90;;;;;;4960560;28;20115;-78
2022/12/21 05:43:15;;;;;;;1999.90;999.90;;;8.60;99.90;;;;;;4959147;28;20043;-78
2022/12/21 05:45:40;;;;;;;1999.90;999.90;;;8.60;99.90;;;;;;4978738;28;20034;-78
2022/12/21 05:48:06;;;;;;;1999.90;999.90;;;8.60;99.90;;;;;;4978844;28;20054;-78
2022/12/21 05:50:31;;;;;;;1999.90;999.90;;;8.60;99.90;;;;;;4979679;28;20055;-79
2022/12/21 05:52:57;;;;;;;1999.90;999.90;;;8.50;99.90;;;;;;4960486;28;20091;-79
2022/12/21 05:55:23;;;;;;;1999.90;999.90;;;8.50;99.90;;;;;;4959232;28;20047;-78
2022/12/21 05:57:48;;;;;;;1999.90;999.90;;;8.50;99.90;;;;;;4958499;28;20409;-79
2022/12/21 06:00:14;;;;;;;1999.90;999.90;;;8.40;99.90;;;;;;4961078;28;20036;-79
2022/12/21 06:02:42;;;;;;;1999.90;999.90;;;8.40;99.90;;;;;;4959142;28;20229;-79
2022/12/21 06:05:08;;;;;;;1999.90;999.90;;;8.50;99.90;;;;;;4958554;28;20130;-79
2022/12/21 06:07:34;;;;;;;1999.90;999.90;;;8.50;99.90;;;;;;4959420;28;20095;-79
2022/12/21 06:10:00;;;;;;;1999.90;999.90;;;8.50;99.90;;;;;;4958389;28;20031;-78
2022/12/21 06:12:28;;;;;;;1999.90;999.90;;;8.50;99.90;;;;;;4957054;28;20402;-78
2022/12/21 06:14:54;;;;;;;1999.90;999.90;;;8.50;99.90;;;;;;4959057;28;20417;-79
2022/12/21 06:17:20;;;;;;;1999.90;999.90;;;8.50;99.90;;;;;;4962834;28;20167;-79
2022/12/21 06:19:45;;;;;;;1999.90;999.90;;;8.60;99.90;;;;;;4959516;28;20167;-78
2022/12/21 06:22:11;;;;;;;1999.90;999.90;;;8.60;99.90;;;;;;4958834;28;20131;-78
2022/12/21 06:24:36;;;;;;;1999.90;999.90;;;8.60;99.90;;;;;;4975355;28;20171;-78
2022/12/21 06:27:02;;;;;;;1999.90;999.90;;;8.70;99.90;;;;;;4975014;28;20027;-78
2022/12/21 06:29:28;;;;;;;1999.90;999.90;;;8.70;99.90;;;;;;4976232;28;20110;-78
2022/12/21 06:31:53;;;;;;;1999.90;999.90;;;8.70;99.90;;;;;;4972906;28;20049;-78
2022/12/21 06:34:19;;;;;;;1999.90;999.90;;;8.80;99.90;;;;;;4975953;28;20047;-78
2022/12/21 06:36:44;;;;;;;1999.90;999.90;;;8.80;99.90;;;;;;4976579;28;20034;-78
2022/12/21 06:39:10;;;;;;;1999.90;999.90;;;8.80;99.90;;;;;;4976449;28;20035;-78
2022/12/21 06:41:35;;;;;;;1999.90;999.90;;;8.90;99.90;;;;;;4972351;28;20039;-78
2022/12/21 06:44:01;;;;;;;1999.90;999.90;;;8.90;99.90;;;;;;4955293;28;20048;-78
2022/12/21 06:46:26;;;;;;;1999.90;999.90;;;8.90;99.90;;;;;;4972263;28;20139;-78
2022/12/21 06:48:52;;;;;;;1999.90;999.90;;;8.90;99.90;;;;;;4976475;28;20039;-79
2022/12/21 06:51:23;;;;;;;1999.90;999.90;;;8.90;99.90;;;;;;4977891;28;20058;-80
2022/12/21 06:53:50;;;;;;;1999.90;999.90;;;8.90;99.90;;;;;;4961402;28;20501;-79
2022/12/21 06:56:19;;;;;;;1999.90;999.90;;;8.90;99.90;;;;;;4967908;28;20031;-79
2022/12/21 06:58:45;;;;;;;1999.90;999.90;;;8.90;99.90;;;;;;4978999;28;20039;-79
2022/12/21 07:01:17;;;;;;;1999.90;999.90;;;8.90;99.90;;;;;;4977755;28;20043;-79
2022/12/21 07:03:43;;;;;;;1999.90;999.90;;;9.00;99.90;;;;;;4963428;28;20118;-78
2022/12/21 07:06:11;;;;;;;1999.90;999.90;;;9.00;99.90;;;;;;4978361;28;20039;-79
2022/12/21 07:08:36;;;;;;;1999.90;999.90;;;9.00;99.90;;;;;;4978965;28;20035;-79
2022/12/21 07:11:08;;;;;;;1999.90;999.90;;;9.00;99.90;;;;;;4978063;28;20378;-79
2022/12/21 07:13:35;;;;;;;1999.90;999.90;;;9.00;99.90;;;;;;4965504;28;20046;-78
2022/12/21 07:16:00;;;;;;;1999.90;999.90;;;9.10;99.90;;;;;;4976390;28;20546;-79
2022/12/21 07:18:26;;;;;;;1999.90;999.90;;;9.10;99.90;;;;;;4975772;28;20540;-78
2022/12/21 07:21:02;;;;;;;1999.90;999.90;;;9.10;99.90;;;;;;4974235;28;20035;-79
2022/12/21 07:23:29;;;;;;;1999.90;999.90;;;9.00;99.90;;;;;;4967916;28;20054;-81
2022/12/21 07:25:56;;;;;;;1999.90;999.90;;;9.00;99.90;;;;;;4955699;28;20116;-79
2022/12/21 07:28:22;;;;;;;1999.90;999.90;;;9.10;99.90;;;;;;4955424;28;20040;-80
2022/12/21 07:30:48;;;;;;;1999.90;999.90;;;9.10;99.90;;;;;;4954976;28;20046;-80
2022/12/21 07:33:18;;;;;;;1999.90;999.90;;;9.10;99.90;;;;;;4956292;28;20044;-79
2022/12/21 07:35:45;;;;;;;1999.90;999.90;;;9.10;99.90;;;;;;4955557;28;20032;-80
2022/12/21 07:38:11;;;;;;;1999.90;999.90;;;9.10;99.90;;;;;;4954890;28;20042;-79
2022/12/21 07:40:38;;;;;;;1999.90;999.90;;;9.10;99.90;;;;;;4955894;28;20042;-79
2022/12/21 07:43:10;;;;;;;1999.90;999.90;;;9.20;99.90;;;;;;4970529;28;20456;-79
2022/12/21 07:45:37;;;;;;;1999.90;999.90;;;9.20;99.90;;;;;;4956189;28;20044;-80
2022/12/21 07:48:03;;;;;;;1999.90;999.90;;;9.20;99.90;;;;;;4955273;28;20431;-79
2022/12/21 07:50:28;;;;;;;1999.90;999.90;;;9.20;99.90;;;;;;4954708;28;20043;-78
2022/12/21 07:52:54;;;;;;;1999.90;999.90;;;9.20;99.90;;;;;;4954412;28;20040;-78
2022/12/21 07:55:20;;;;;;;1999.90;999.90;;;9.20;99.90;;;;;;4956263;28;20043;-80
2022/12/21 07:57:45;;;;;;;1999.90;999.90;;;9.20;99.90;;;;;;4956681;28;20039;-80
2022/12/21 08:00:11;;;;;;;1999.90;999.90;;;9.20;99.90;;;;;;4956153;28;20107;-79
2022/12/21 08:02:37;;;;;;;1999.90;999.90;;;9.20;99.90;;;;;;4973371;28;20504;-80
2022/12/21 08:05:02;;;;;;;1999.90;999.90;;;9.20;99.90;;;;;;4976694;28;20118;-79
2022/12/21 08:07:28;;;;;;;1999.90;999.90;;;9.20;99.90;;;;;;4975347;28;20123;-80
2022/12/21 08:09:53;;;;;;;1999.90;999.90;;;9.20;99.90;;;;;;4976372;28;20122;-80
2022/12/21 08:12:19;;;;;;;1999.90;999.90;;;9.30;99.90;;;;;;4961813;28;20118;-80
2022/12/21 08:14:45;;;;;;;1999.90;999.90;;;9.30;99.90;;;;;;4959301;28;20046;-80
2022/12/21 08:17:10;;;;;;;1999.90;999.90;;;9.30;99.90;;;;;;4959512;28;20039;-80
2022/12/21 08:19:36;;;;;;;1999.90;999.90;;;9.20;99.90;;;;;;4971498;28;20035;-80
2022/12/21 08:22:01;;;;;;;1999.90;999.90;;;9.20;99.90;;;;;;4975047;28;20036;-81
2022/12/21 08:24:28;;;;;;;1999.90;999.90;;;9.30;99.90;;;;;;4974926;28;20054;-81
2022/12/21 08:26:54;;;;;;;1999.90;999.90;;;9.20;99.90;;;;;;4961098;28;20486;-80
2022/12/21 08:29:20;;;;;;;1999.90;999.90;;;9.20;99.90;;;;;;4972734;28;20048;-80
2022/12/21 08:31:45;;;;;;;1999.90;999.90;;;9.30;99.90;;;;;;4963755;28;20040;-81
2022/12/21 08:34:11;;;;;;;1999.90;999.90;;;9.20;99.90;;;;;;4958043;28;20047;-79
2022/12/21 08:36:37;;;;;;;1999.90;999.90;;;9.20;99.90;;;;;;4955868;28;20417;-79
2022/12/21 08:39:03;;;;;;;1999.90;999.90;;;9.20;99.90;;;;;;4956577;28;20039;-79
2022/12/21 08:41:29;;;;;;;1999.90;999.90;;;9.20;99.90;;;;;;4974417;28;20429;-81
2022/12/21 08:43:55;;;;;;;1999.90;999.90;;;9.30;99.90;;;;;;4976274;28;20066;-81
2022/12/21 08:46:21;;;;;;;1999.90;999.90;;;9.30;99.90;;;;;;4976939;28;20038;-80
2022/12/21 08:48:49;;;;;;;1999.90;999.90;;;9.30;99.90;;;;;;4974875;28;20046;-79
2022/12/21 08:51:14;;;;;;;1999.90;999.90;;;9.40;99.90;;;;;;4974520;28;20847;-79
2022/12/21 08:53:40;;;;;;;1999.90;999.90;;;9.50;99.90;;;;;;4969941;28;20056;-80
2022/12/21 08:56:06;;;;;;;1999.90;999.90;;;9.40;99.90;;;;;;4959180;28;20092;-82
2022/12/21 08:58:32;;;;;;;1999.90;999.90;;;9.40;99.90;;;;;;4958182;28;20513;-80
2022/12/21 09:00:58;;;;;;;1999.90;999.90;;;9.40;99.90;;;;;;4958902;28;20035;-79
2022/12/21 09:03:26;;;;;;;1999.90;999.90;;;9.40;99.90;;;;;;4958631;28;20047;-78
2022/12/21 09:05:57;;;;;;;1999.90;999.90;;;9.40;99.90;;;;;;4959780;28;20098;-77
2022/12/21 09:08:23;;;;;;;1999.90;999.90;;;9.40;99.90;;;;;;4961289;28;20040;-77
2022/12/21 09:10:48;;;;;;;1999.90;999.90;;;9.40;99.90;;;;;;4958195;28;20032;-78
2022/12/21 09:13:14;;;;;;;1999.90;999.90;;;9.40;99.90;;;;;;4959668;28;20044;-79
2022/12/21 09:15:43;;;;;;;1999.90;999.90;;;9.40;99.90;;;;;;4959233;28;20123;-79
2022/12/21 09:18:10;;;;;;;1999.90;999.90;;;9.40;99.90;;;;;;4978562;28;20401;-78
2022/12/21 09:20:35;;;;;;;1999.90;999.90;;;9.20;99.90;;;;;;4976665;28;20035;-79
2022/12/21 09:23:01;;;;;;;1999.90;999.90;;;9.40;99.90;;;;;;4976760;28;20043;-78
2022/12/21 09:25:27;;;;;;;1999.90;999.90;;;9.40;99.90;;;;;;4978948;28;20414;-81
2022/12/21 09:27:52;;;;;;;1999.90;999.90;;;9.40;99.90;;;;;;4960555;28;20435;-78
2022/12/21 09:30:18;;;;;;;1999.90;999.90;;;9.30;99.90;;;;;;4958818;28;20054;-79
2022/12/21 09:32:43;;;;;;;1999.90;999.90;;;9.30;99.90;;;;;;4958063;28;20539;-78
2022/12/21 09:35:10;;;;;;;1999.90;999.90;;;9.30;99.90;;;;;;4959111;28;20039;-79
2022/12/21 09:37:36;;;;;;;1999.90;999.90;;;9.40;99.90;;;;;;4959237;28;20056;-79
2022/12/21 09:40:02;;;;;;;1999.90;999.90;;;9.40;99.90;;;;;;4976701;28;20035;-80
2022/12/21 09:42:52;;;;;;;1999.90;999.90;;;9.40;99.90;;;;;;4983065;28;20039;-79
2022/12/21 09:45:25;;;;;;;1999.90;999.90;;;9.40;99.90;;;;;;4980702;28;20024;-78
2022/12/21 09:47:57;;;;;;;1999.90;999.90;;;9.50;99.90;;;;;;4980795;28;20040;-79
2022/12/21 09:50:25;;;;;;;1999.90;999.90;;;9.50;99.90;;;;;;4982338;28;20031;-79
2022/12/21 09:53:11;;;;;;;1999.90;999.90;;;9.50;99.90;;;;;;4985659;28;20054;-80
2022/12/21 09:55:46;;;;;;;1999.90;999.90;;;9.50;99.90;;;;;;4982305;28;20038;-79
2022/12/21 09:58:33;;;;;;;1999.90;999.90;;;9.60;99.90;;;;;;4977408;28;20047;-80
2022/12/21 10:01:20;;;;;;;1999.90;999.90;;;9.60;99.90;;;;;;4977648;28;20035;-78
2022/12/21 10:03:56;;;;;;;1999.90;999.90;;;9.60;99.90;;;;;;4981461;28;20032;-80
2022/12/21 10:06:25;;;;;;;1999.90;999.90;;;9.70;99.90;;;;;;4979794;28;20083;-80
2022/12/21 10:09:02;;;;;;;1999.90;999.90;;;9.70;99.90;;;;;;4978360;28;20039;-79
2022/12/21 10:11:42;;;;;;;1999.90;999.90;;;10.00;99.90;;;;;;4990089;28;20038;-78
2022/12/21 10:14:31;;;;;;;1999.90;999.90;;;9.80;99.90;;;;;;4997886;28;20042;-78
2022/12/21 10:17:10;;;;;;;1999.90;999.90;;;9.80;99.90;;;;;;4992710;28;20406;-78
2022/12/21 10:20:02;;;;;;;1999.90;999.90;;;9.70;99.90;;;;;;4997498;28;20039;-81
2022/12/21 10:22:34;;;;;;;1999.90;999.90;;;9.70;99.90;;;;;;4996294;28;20035;-80
2022/12/21 10:25:13;;;;;;;1999.90;999.90;;;9.70;99.90;;;;;;4997902;28;20034;-79
2022/12/21 10:28:20;;;;;;;1999.90;999.90;;;9.70;99.90;;;;;;4998803;28;20041;-81
2022/12/21 10:30:55;;;;;;;1999.90;999.90;;;9.70;99.90;;;;;;4997596;28;20035;-81
2022/12/21 10:33:22;;;;;;;1999.90;999.90;;;9.70;99.90;;;;;;4998369;28;20572;-80
2022/12/21 10:35:52;;;;;;;1999.90;999.90;;;9.80;99.90;;;;;;4997760;28;20034;-81
2022/12/21 10:38:19;;;;;;;1999.90;999.90;;;9.70;99.90;;;;;;4998744;28;20063;-81
2022/12/21 10:40:51;;;;;;;1999.90;999.90;;;9.70;99.90;;;;;;4996132;28;20117;-80
2022/12/21 10:43:17;;;;;;;1999.90;999.90;;;9.70;99.90;;;;;;4997817;28;20575;-81
2022/12/21 10:45:43;;;;;;;1999.90;999.90;;;9.70;99.90;;;;;;4997351;28;20118;-81
2022/12/21 10:48:10;;;;;;;1999.90;999.90;;;9.70;99.90;;;;;;4997204;28;20035;-81
2022/12/21 10:50:43;;;;;;;1999.90;999.90;;;9.60;99.90;;;;;;4996074;28;20085;-82
2022/12/21 10:53:26;;;;;;;1999.90;999.90;;;9.70;99.90;;;;;;4996801;28;20070;-80
2022/12/21 10:55:58;;;;;;;1999.90;999.90;;;9.90;99.90;;;;;;4997095;28;20035;-80
2022/12/21 10:58:27;;;;;;;1999.90;999.90;;;10.10;99.90;;;;;;4997495;28;20031;-81
2022/12/21 11:01:03;;;;;;;1999.90;999.90;;;10.10;99.90;;;;;;4997938;28;20126;-81
2022/12/21 11:03:31;;;;;;;1999.90;999.90;;;10.30;99.90;;;;;;4997803;28;20041;-81
2022/12/21 11:06:04;;;;;;;1999.90;999.90;;;10.20;99.90;;;;;;4998045;28;20026;-81
2022/12/21 11:08:31;;;;;;;1999.90;999.90;;;10.20;99.90;;;;;;4997695;28;20059;-82
2022/12/21 11:11:01;;;;;;;1999.90;999.90;;;10.20;99.90;;;;;;4997023;28;20870;-81
2022/12/21 11:13:30;;;;;;;1999.90;999.90;;;10.00;99.90;;;;;;5012922;22;20114;-75
2022/12/21 11:16:07;;;;;;;1999.90;999.90;;;10.00;99.90;;;;;;4996252;28;20059;-78
2022/12/21 11:18:43;;;;;;;1999.90;999.90;;;9.90;99.90;;;;;;4997490;28;20035;-79
2022/12/21 11:21:36;;;;;;;1999.90;999.90;;;10.00;99.90;;;;;;4999494;28;20493;-78
2022/12/21 11:24:15;;;;;;;1999.90;999.90;;;10.10;99.90;;;;;;4989623;28;20042;-77
2022/12/21 11:26:49;;;;;;;1999.90;999.90;;;10.20;99.90;;;;;;4996611;28;20471;-77
2022/12/21 11:29:31;;;;;;;1999.90;999.90;;;10.30;99.90;;;;;;4996383;28;20035;-75
2022/12/21 11:32:06;;;;;;;1999.90;999.90;;;10.40;99.90;;;;;;4997013;28;20039;-77
2022/12/21 11:34:38;;;;;;;1999.90;999.90;;;10.40;99.90;;;;;;4995857;28;20084;-77
2022/12/21 11:37:36;;;;;;;1999.90;999.90;;;10.40;99.90;;;;;;4996268;28;20480;-78
2022/12/21 11:40:29;;;;;;;1999.90;999.90;;;10.40;99.90;;;;;;4996161;28;20118;-77
